createdAt,value
2022-10-17T00:00:31.640Z,98664.44
2022-10-17T00:02:35.155Z,98674.22
2022-10-17T00:04:38.329Z,98667.31
2022-10-17T00:06:41.780Z,98673.75
2022-10-17T00:08:45.879Z,98663.56
2022-10-17T00:10:59.745Z,98662.84
2022-10-17T00:13:02.945Z,98674.19
2022-10-17T00:15:07.963Z,98674.31
2022-10-17T00:17:11.165Z,98672.78
2022-10-17T00:19:14.343Z,98664.16
2022-10-17T00:21:18.312Z,98672.16
2022-10-17T00:23:21.435Z,98672.16
2022-10-17T00:25:24.729Z,98679.22
2022-10-17T00:27:29.743Z,98674.19
2022-10-17T00:29:33.049Z,98676.94
2022-10-17T00:31:36.836Z,98672.88
2022-10-17T00:33:43.193Z,98679.09
2022-10-17T00:35:46.312Z,98670.47
2022-10-17T00:37:49.861Z,98680.97
2022-10-17T00:39:53.840Z,98685.53
2022-10-17T00:41:57.027Z,98691.59
2022-10-17T00:44:03.588Z,98685.53
2022-10-17T00:46:06.746Z,98683.00
2022-10-17T00:48:11.611Z,98686.56
2022-10-17T00:50:14.972Z,98679.69
2022-10-17T00:52:20.744Z,98680.72
2022-10-17T00:54:27.142Z,98679.28
2022-10-17T00:56:31.219Z,98680.13
2022-10-17T00:58:35.465Z,98676.78
2022-10-17T01:00:40.080Z,98672.59
2022-10-17T01:02:43.421Z,98676.19
2022-10-17T01:04:49.027Z,98679.78
2022-10-17T01:06:53.032Z,98673.91
2022-10-17T01:08:56.644Z,98675.81
2022-10-17T01:11:07.140Z,98668.88
2022-10-17T01:13:15.464Z,98671.50
2022-10-17T01:15:25.280Z,98677.72
2022-10-17T01:17:36.640Z,98665.53
2022-10-17T01:19:59.175Z,98674.34
2022-10-17T01:22:06.289Z,98678.78
2022-10-17T01:24:43.345Z,98678.19
2022-10-17T01:26:59.183Z,98685.19
2022-10-17T01:29:14.188Z,98677.56
2022-10-17T01:31:21.532Z,98676.63
2022-10-17T01:33:32.849Z,98682.69
2022-10-17T01:35:41.066Z,98681.97
2022-10-17T01:37:49.006Z,98679.34
2022-10-17T01:39:54.901Z,98681.97
2022-10-17T01:42:01.698Z,98678.66
2022-10-17T01:44:09.102Z,98682.22
2022-10-17T01:46:14.793Z,98684.00
2022-10-17T01:48:22.962Z,98681.50
2022-10-17T01:50:29.543Z,98683.25
2022-10-17T01:52:35.997Z,98674.69
2022-10-17T01:54:42.026Z,98669.44
2022-10-17T01:56:45.519Z,98673.00
2022-10-17T01:58:52.115Z,98679.09
2022-10-17T02:00:57.169Z,98682.66
2022-10-17T02:03:02.401Z,98679.31
2022-10-17T02:05:07.717Z,98684.69
2022-10-17T02:07:12.305Z,98676.06
2022-10-17T02:09:21.592Z,98678.81
2022-10-17T02:11:26.090Z,98677.16
2022-10-17T02:13:39.157Z,98675.34
2022-10-17T02:15:54.383Z,98672.97
2022-10-17T02:18:05.588Z,98667.81
2022-10-17T02:20:18.880Z,98667.81
2022-10-17T02:22:30.994Z,98669.50
2022-10-17T02:24:39.079Z,98672.47
2022-10-17T02:26:45.781Z,98671.88
2022-10-17T02:28:53.144Z,98674.84
2022-10-17T02:31:00.554Z,98673.16
2022-10-17T02:33:07.915Z,98668.13
2022-10-17T02:35:15.480Z,98670.03
2022-10-17T02:37:21.472Z,98673.38
2022-10-17T02:39:26.484Z,98682.19
2022-10-17T02:41:31.317Z,98683.16
2022-10-17T02:43:35.654Z,98674.31
2022-10-17T02:45:39.440Z,98683.97
2022-10-17T02:47:50.844Z,98689.22
2022-10-17T02:49:56.124Z,98682.53
2022-10-17T02:52:03.925Z,98682.75
2022-10-17T02:54:11.172Z,98686.34
2022-10-17T02:56:18.893Z,98680.34
2022-10-17T02:58:25.448Z,98685.81
2022-10-17T03:00:29.192Z,98682.69
2022-10-17T03:02:40.261Z,98678.34
2022-10-17T03:04:46.030Z,98681.94
2022-10-17T03:06:49.706Z,98675.72
2022-10-17T03:08:55.905Z,98687.94
2022-10-17T03:10:59.042Z,98689.63
2022-10-17T03:13:03.708Z,98687.94
2022-10-17T03:15:09.669Z,98685.41
2022-10-17T03:17:12.933Z,98687.19
2022-10-17T03:19:16.092Z,98693.28
2022-10-17T03:21:20.090Z,98687.31
2022-10-17T03:23:23.168Z,98692.56
2022-10-17T03:25:27.762Z,98691.94
2022-10-17T03:27:31.337Z,98697.81
2022-10-17T03:29:34.774Z,98696.22
2022-10-17T03:31:39.674Z,98692.88
2022-10-17T03:33:44.074Z,98700.03
2022-10-17T03:35:47.227Z,98695.84
2022-10-17T03:37:50.436Z,98690.47
2022-10-17T03:39:55.657Z,98694.03
2022-10-17T03:42:00.171Z,98696.78
2022-10-17T03:44:03.396Z,98695.94
2022-10-17T03:46:07.961Z,98698.56
2022-10-17T03:48:12.276Z,98696.88
2022-10-17T03:50:16.049Z,98708.56
2022-10-17T03:52:20.071Z,98704.59
2022-10-17T03:54:23.975Z,98702.28
2022-10-17T03:56:27.790Z,98703.97
2022-10-17T03:58:40.236Z,98700.38
2022-10-17T04:00:43.345Z,98702.28
2022-10-17T04:02:46.427Z,98711.84
2022-10-17T04:04:54.555Z,98716.13
2022-10-17T04:06:58.009Z,98715.19
2022-10-17T04:09:01.629Z,98718.53
2022-10-17T04:11:16.849Z,98711.50
2022-10-17T04:13:19.904Z,98711.41
2022-10-17T04:15:24.414Z,98711.50
2022-10-17T04:17:35.898Z,98705.41
2022-10-17T04:19:41.773Z,98709.81
2022-10-17T04:21:45.284Z,98709.31
2022-10-17T04:23:49.745Z,98709.44
2022-10-17T04:26:07.042Z,98712.78
2022-10-17T04:28:10.410Z,98718.94
2022-10-17T04:30:14.533Z,98719.69
2022-10-17T04:32:20.039Z,98722.22
2022-10-17T04:34:32.426Z,98721.34
2022-10-17T04:36:35.657Z,98725.78
2022-10-17T04:38:39.753Z,98730.19
2022-10-17T04:40:43.268Z,98731.22
2022-10-17T04:42:46.863Z,98735.66
2022-10-17T04:44:54.609Z,98725.38
2022-10-17T04:47:00.145Z,98733.47
2022-10-17T04:49:06.027Z,98730.84
2022-10-17T04:51:12.183Z,98731.66
2022-10-17T04:53:25.453Z,98735.13
2022-10-17T04:55:28.669Z,98729.03
2022-10-17T04:57:31.924Z,98729.88
2022-10-17T04:59:42.349Z,98737.94
2022-10-17T05:01:54.904Z,98741.53
2022-10-17T05:03:58.206Z,98736.50
2022-10-17T05:06:06.818Z,98728.88
2022-10-17T05:08:11.352Z,98737.56
2022-10-17T05:10:15.344Z,98736.72
2022-10-17T05:12:22.707Z,98739.56
2022-10-17T05:14:25.874Z,98737.88
2022-10-17T05:16:30.267Z,98746.50
2022-10-17T05:18:34.484Z,98750.56
2022-10-17T05:20:38.346Z,98749.63
2022-10-17T05:22:44.393Z,98754.84
2022-10-17T05:24:48.162Z,98747.22
2022-10-17T05:26:52.136Z,98743.00
2022-10-17T05:29:00.740Z,98744.50
2022-10-17T05:31:04.882Z,98746.59
2022-10-17T05:33:08.270Z,98742.72
2022-10-17T05:35:11.779Z,98740.13
2022-10-17T05:37:15.376Z,98751.81
2022-10-17T05:39:24.371Z,98749.97
2022-10-17T05:41:28.390Z,98744.72
2022-10-17T05:43:32.111Z,98753.41
2022-10-17T05:45:35.821Z,98753.31
2022-10-17T05:47:39.118Z,98748.88
2022-10-17T05:49:48.549Z,98751.63
2022-10-17T05:51:54.317Z,98762.00
2022-10-17T05:53:57.490Z,98756.84
2022-10-17T05:56:08.079Z,98762.75
2022-10-17T05:58:21.763Z,98766.28
2022-10-17T06:00:26.741Z,98768.81
2022-10-17T06:02:34.296Z,98765.25
2022-10-17T06:04:37.975Z,98772.06
2022-10-17T06:06:41.708Z,98771.13
2022-10-17T06:08:46.235Z,98783.28
2022-10-17T06:10:53.462Z,98783.03
2022-10-17T06:12:57.948Z,98788.25
2022-10-17T06:15:02.500Z,98797.06
2022-10-17T06:17:06.140Z,98793.78
2022-10-17T06:19:09.171Z,98802.88
2022-10-17T06:21:13.122Z,98796.25
2022-10-17T06:23:21.008Z,98787.94
2022-10-17T06:25:32.135Z,98794.56
2022-10-17T06:27:35.307Z,98799.16
2022-10-17T06:29:39.828Z,98808.34
2022-10-17T06:31:43.037Z,98804.03
2022-10-17T06:33:46.835Z,98809.16
2022-10-17T06:35:52.792Z,98804.75
2022-10-17T06:37:56.236Z,98812.94
2022-10-17T06:40:00.140Z,98805.78
2022-10-17T06:42:04.202Z,98810.06
2022-10-17T06:44:34.074Z,98816.75
2022-10-17T06:46:56.573Z,98832.25
2022-10-17T06:48:59.646Z,98831.25
2022-10-17T06:51:12.703Z,98835.00
2022-10-17T06:53:25.149Z,98840.84
2022-10-17T06:55:28.236Z,98839.56
2022-10-17T06:57:51.240Z,98841.28
2022-10-17T07:00:17.728Z,98847.31
2022-10-17T07:02:27.886Z,98843.09
2022-10-17T07:04:33.650Z,98849.69
2022-10-17T07:06:36.637Z,98849.13
2022-10-17T07:08:53.006Z,98851.53
2022-10-17T07:10:56.818Z,98852.72
2022-10-17T07:12:59.797Z,98856.72
2022-10-17T07:15:04.142Z,98863.41
2022-10-17T07:17:07.258Z,98860.75
2022-10-17T07:19:11.780Z,98857.25
2022-10-17T07:21:16.101Z,98861.22
2022-10-17T07:23:19.671Z,98870.16
2022-10-17T07:25:22.986Z,98863.06
2022-10-17T07:27:31.139Z,98870.69
2022-10-17T07:29:34.559Z,98867.44
2022-10-17T07:31:45.548Z,98875.03
2022-10-17T07:33:49.093Z,98879.47
2022-10-17T07:35:53.724Z,98868.59
2022-10-17T07:37:57.071Z,98868.53
2022-10-17T07:40:00.305Z,98866.09
2022-10-17T07:42:03.470Z,98860.06
2022-10-17T07:44:07.461Z,98857.47
2022-10-17T07:46:16.020Z,98851.44
2022-10-17T07:48:20.354Z,98869.47
2022-10-17T07:50:23.766Z,98868.41
2022-10-17T07:52:28.650Z,98868.28
2022-10-17T07:54:31.963Z,98870.38
2022-10-17T07:56:35.049Z,98872.78
2022-10-17T07:58:38.857Z,98878.56
2022-10-17T08:00:42.194Z,98886.22
2022-10-17T08:02:45.414Z,98886.50
2022-10-17T08:04:48.500Z,98887.66
2022-10-17T08:06:56.405Z,98887.78
2022-10-17T08:09:05.341Z,98883.81
2022-10-17T08:11:10.103Z,98887.88
2022-10-17T08:13:13.159Z,98887.59
2022-10-17T08:15:16.245Z,98897.91
2022-10-17T08:17:19.258Z,98896.09
2022-10-17T08:19:22.394Z,98889.81
2022-10-17T08:21:25.441Z,98897.63
2022-10-17T08:23:28.888Z,98902.06
2022-10-17T08:25:33.446Z,98903.34
2022-10-17T08:27:36.858Z,98891.34
2022-10-17T08:29:40.186Z,98890.63
2022-10-17T08:31:47.472Z,98887.00
2022-10-17T08:33:51.783Z,98895.34
2022-10-17T08:35:54.908Z,98897.16
2022-10-17T08:38:01.571Z,98896.88
2022-10-17T08:40:05.882Z,98909.00
2022-10-17T08:42:39.075Z,98907.69
2022-10-17T08:44:50.946Z,98910.78
2022-10-17T08:46:57.054Z,98914.50
2022-10-17T08:49:03.856Z,98907.78
2022-10-17T08:51:13.317Z,98921.81
2022-10-17T08:53:20.680Z,98916.38
2022-10-17T08:55:30.129Z,98915.34
2022-10-17T08:57:35.406Z,98918.66
2022-10-17T08:59:38.903Z,98920.13
2022-10-17T09:01:46.947Z,98920.56
2022-10-17T09:04:06.933Z,98925.25
2022-10-17T09:06:17.332Z,98930.78
2022-10-17T09:08:31.959Z,98923.13
2022-10-17T09:10:44.549Z,98918.19
2022-10-17T09:13:06.931Z,98926.56
2022-10-17T09:15:33.723Z,98925.47
2022-10-17T09:17:50.164Z,98924.75
2022-10-17T09:20:00.477Z,98919.28
2022-10-17T09:22:07.071Z,98918.22
2022-10-17T09:24:16.615Z,98915.88
2022-10-17T09:26:20.132Z,98925.09
2022-10-17T09:28:27.690Z,98931.59
2022-10-17T09:30:45.567Z,98936.47
2022-10-17T09:32:49.595Z,98931.09
2022-10-17T09:34:54.318Z,98930.03
2022-10-17T09:36:59.623Z,98930.13
2022-10-17T09:39:06.168Z,98940.38
2022-10-17T09:41:44.128Z,98931.91
2022-10-17T09:43:44.137Z,98932.25
2022-10-17T09:45:56.042Z,98930.88
2022-10-17T09:48:03.577Z,98935.31
2022-10-17T09:50:22.125Z,98930.53
2022-10-17T09:52:30.265Z,98917.59
2022-10-17T09:54:43.672Z,98917.16
2022-10-17T09:56:59.897Z,98929.97
2022-10-17T09:59:04.787Z,98923.53
2022-10-17T10:01:21.129Z,98924.00
2022-10-17T10:03:28.135Z,98918.38
2022-10-17T10:05:31.106Z,98912.13
2022-10-17T10:07:36.132Z,98909.53
2022-10-17T10:09:40.409Z,98919.06
2022-10-17T10:11:47.994Z,98914.97
2022-10-17T10:13:51.957Z,98917.00
2022-10-17T10:16:14.799Z,98911.41
2022-10-17T10:18:33.692Z,98909.25
2022-10-17T10:20:38.226Z,98902.47
2022-10-17T10:22:41.882Z,98908.66
2022-10-17T10:24:44.925Z,98906.22
2022-10-17T10:26:49.180Z,98918.56
2022-10-17T10:28:58.409Z,98916.28
2022-10-17T10:31:07.323Z,98913.97
2022-10-17T10:33:12.682Z,98915.28
2022-10-17T10:35:22.152Z,98917.63
2022-10-17T10:37:26.937Z,98914.81
2022-10-17T10:39:46.117Z,98916.50
2022-10-17T10:41:49.978Z,98913.00
2022-10-17T10:43:53.497Z,98915.34
2022-10-17T10:45:56.775Z,98916.53
2022-10-17T10:48:02.683Z,98921.19
2022-10-17T10:50:18.631Z,98927.22
2022-10-17T10:52:32.853Z,98924.06
2022-10-17T10:56:44.937Z,98930.28
2022-10-17T10:58:54.484Z,98925.28
2022-10-17T11:00:58.865Z,98923.00
2022-10-17T11:03:12.759Z,98922.50
2022-10-17T11:05:21.840Z,98922.19
2022-10-17T11:07:28.657Z,98920.03
2022-10-17T11:09:45.963Z,98914.69
2022-10-17T11:11:52.528Z,98912.88
2022-10-17T11:14:05.106Z,98914.53
2022-10-17T11:16:18.097Z,98918.56
2022-10-17T11:18:26.036Z,98914.53
2022-10-17T11:20:35.729Z,98914.22
2022-10-17T11:22:42.657Z,98914.75
2022-10-17T11:24:56.838Z,98908.91
2022-10-17T11:27:02.593Z,98913.91
2022-10-17T11:29:08.430Z,98904.75
2022-10-17T11:31:13.877Z,98903.44
2022-10-17T11:33:21.673Z,98906.94
2022-10-17T11:35:28.593Z,98909.41
2022-10-17T11:37:33.675Z,98899.44
2022-10-17T11:39:42.434Z,98906.09
2022-10-17T11:41:49.416Z,98899.63
2022-10-17T11:43:55.485Z,98905.63
2022-10-17T11:46:01.362Z,98901.13
2022-10-17T11:48:07.561Z,98900.97
2022-10-17T11:52:56.805Z,98893.50
2022-10-17T11:55:04.932Z,98899.47
2022-10-17T11:57:27.384Z,98889.00
2022-10-17T11:59:50.065Z,98894.81
2022-10-17T12:01:57.324Z,98895.66
2022-10-17T12:04:09.187Z,98890.31
2022-10-17T12:06:18.235Z,98892.13
2022-10-17T12:08:30.587Z,98891.97
2022-10-17T12:10:41.041Z,98895.50
2022-10-17T12:12:44.310Z,98886.47
2022-10-17T12:14:47.781Z,98890.81
2022-10-17T12:16:51.036Z,98889.63
2022-10-17T12:19:32.628Z,98876.81
2022-10-17T12:21:55.003Z,98883.78
2022-10-17T12:23:59.368Z,98884.50
2022-10-17T12:26:05.096Z,98881.66
2022-10-17T12:28:14.701Z,98888.47
2022-10-17T12:30:20.856Z,98884.81
2022-10-17T12:32:23.950Z,98886.31
2022-10-17T12:34:26.980Z,98888.13
2022-10-17T12:36:50.339Z,98892.63
2022-10-17T12:39:31.583Z,98882.97
2022-10-17T12:41:55.042Z,98886.31
2022-10-17T12:43:58.188Z,98879.97
2022-10-17T12:46:01.909Z,98878.81
2022-10-17T12:48:04.955Z,98881.94
2022-10-17T12:50:53.092Z,98883.47
2022-10-17T12:53:04.397Z,98877.97
2022-10-17T12:55:14.075Z,98885.63
2022-10-17T12:57:22.611Z,98881.97
2022-10-17T12:59:27.700Z,98892.28
2022-10-17T13:01:32.654Z,98883.28
2022-10-17T13:03:43.820Z,98888.25
2022-10-17T13:05:49.084Z,98886.09
2022-10-17T13:07:52.863Z,98887.75
2022-10-17T13:09:56.343Z,98887.59
2022-10-17T13:12:01.584Z,98884.91
2022-10-17T13:14:12.727Z,98881.25
2022-10-17T13:16:29.614Z,98885.56
2022-10-17T13:18:32.685Z,98889.91
2022-10-17T13:20:35.814Z,98895.25
2022-10-17T13:22:45.755Z,98885.56
2022-10-17T13:24:49.461Z,98892.59
2022-10-17T13:26:52.652Z,98893.56
2022-10-17T13:31:32.061Z,98902.59
2022-10-17T13:33:38.953Z,98901.75
2022-10-17T13:35:59.345Z,98912.59
2022-10-17T13:38:07.436Z,98913.78
2022-10-17T13:40:44.181Z,98917.44
2022-10-17T13:42:41.852Z,98913.13
2022-10-17T13:44:47.166Z,98916.78
2022-10-17T13:46:50.775Z,98915.97
2022-10-17T13:48:53.924Z,98919.63
2022-10-17T13:51:02.994Z,98917.94
2022-10-17T13:53:16.707Z,98919.78
2022-10-17T13:55:22.151Z,98921.47
2022-10-17T13:57:27.016Z,98917.94
2022-10-17T13:59:35.200Z,98922.63
2022-10-17T14:01:39.724Z,98923.59
2022-10-17T14:03:48.768Z,98921.97
2022-10-17T14:06:12.871Z,98926.59
2022-10-17T14:08:22.835Z,98913.44
2022-10-17T14:10:28.805Z,98921.44
2022-10-17T14:12:32.077Z,98920.78
2022-10-17T14:14:51.997Z,98920.13
2022-10-17T14:16:59.590Z,98924.63
2022-10-17T14:19:02.809Z,98925.81
2022-10-17T14:23:31.841Z,98931.31
2022-10-17T14:25:37.141Z,98929.63
2022-10-17T14:27:57.540Z,98939.63
2022-10-17T14:30:02.674Z,98927.63
2022-10-17T14:32:09.570Z,98919.97
2022-10-17T14:34:22.888Z,98933.28
2022-10-17T14:36:38.936Z,98930.78
2022-10-17T14:38:46.593Z,98930.13
2022-10-17T14:40:52.337Z,98941.13
2022-10-17T14:42:57.135Z,98927.97
2022-10-17T14:45:06.588Z,98938.97
2022-10-17T14:47:42.210Z,98931.28
2022-10-17T14:49:44.988Z,98935.28
2022-10-17T14:52:21.484Z,98935.59
2022-10-17T14:54:26.333Z,98940.94
2022-10-17T14:56:36.537Z,98941.97
2022-10-17T14:58:39.606Z,98942.13
2022-10-17T15:00:42.642Z,98942.25
2022-10-17T15:02:47.945Z,98939.06
2022-10-17T15:04:51.002Z,98944.72
2022-10-17T15:06:55.521Z,98944.06
2022-10-17T15:08:58.983Z,98942.88
2022-10-17T15:11:02.016Z,98949.06
2022-10-17T15:15:29.093Z,98944.88
2022-10-17T15:17:32.574Z,98940.88
2022-10-17T15:19:37.116Z,98939.53
2022-10-17T15:21:44.664Z,98938.03
2022-10-17T15:23:50.619Z,98942.84
2022-10-17T15:25:53.709Z,98941.34
2022-10-17T15:27:57.498Z,98944.31
2022-10-17T15:30:00.589Z,98951.00
2022-10-17T15:32:03.676Z,98941.81
2022-10-17T15:34:06.776Z,98943.66
2022-10-17T15:36:28.442Z,98941.47
2022-10-17T15:38:31.462Z,98940.94
2022-10-17T15:40:34.502Z,98941.44
2022-10-17T15:42:37.549Z,98942.75
2022-10-17T15:44:44.194Z,98937.75
2022-10-17T15:46:47.301Z,98941.41
2022-10-17T15:48:50.756Z,98940.91
2022-10-17T15:50:53.771Z,98931.38
2022-10-17T15:52:58.439Z,98933.69
2022-10-17T15:55:04.366Z,98930.53
2022-10-17T15:57:17.280Z,98930.31
2022-10-17T15:59:31.827Z,98931.63
2022-10-17T16:01:35.782Z,98936.25
2022-10-17T16:03:39.025Z,98942.91
2022-10-17T16:05:42.408Z,98945.19
2022-10-17T16:07:46.186Z,98942.00
2022-10-17T16:09:50.589Z,98946.09
2022-10-17T16:11:53.592Z,98953.72
2022-10-17T16:13:59.510Z,98955.16
2022-10-17T16:16:02.494Z,98954.81
2022-10-17T16:18:07.334Z,98961.41
2022-10-17T16:20:13.017Z,98951.41
2022-10-17T16:22:21.558Z,98959.00
2022-10-17T16:24:24.757Z,98956.13
2022-10-17T16:26:29.650Z,98966.41
2022-10-17T16:28:32.771Z,98959.03
2022-10-17T16:30:42.405Z,98974.88
2022-10-17T16:32:45.505Z,98976.97
2022-10-17T16:34:48.786Z,98980.38
2022-10-17T16:36:51.766Z,98982.13
2022-10-17T16:38:55.014Z,98984.53
2022-10-17T16:40:58.281Z,98985.16
2022-10-17T16:43:02.706Z,98988.38
2022-10-17T16:45:06.466Z,98988.81
2022-10-17T16:47:09.593Z,98979.09
2022-10-17T16:49:12.832Z,98991.97
2022-10-17T16:51:18.327Z,98991.75
2022-10-17T16:53:21.357Z,98992.63
2022-10-17T16:55:24.385Z,98988.88
2022-10-17T16:57:27.430Z,98984.31
2022-10-17T16:59:31.922Z,98980.47
2022-10-17T17:01:34.997Z,98984.66
2022-10-17T17:03:38.515Z,98993.19
2022-10-17T17:05:41.593Z,98991.41
2022-10-17T17:07:44.739Z,98983.19
2022-10-17T17:09:47.884Z,98989.88
2022-10-17T17:11:51.048Z,98999.28
2022-10-17T17:13:56.166Z,99005.97
2022-10-17T17:16:11.075Z,99014.34
2022-10-17T17:18:14.479Z,99008.78
2022-10-17T17:20:17.516Z,99009.38
2022-10-17T17:22:20.493Z,99020.53
2022-10-17T17:24:23.629Z,99022.78
2022-10-17T17:26:27.813Z,99025.84
2022-10-17T17:28:31.627Z,99020.25
2022-10-17T17:30:34.892Z,99024.31
2022-10-17T17:32:39.451Z,99022.22
2022-10-17T17:34:42.515Z,99022.66
2022-10-17T17:36:45.836Z,99029.28
2022-10-17T17:38:49.862Z,99028.06
2022-10-17T17:40:53.263Z,99031.94
2022-10-17T17:42:56.418Z,99028.88
2022-10-17T17:44:59.493Z,99027.75
2022-10-17T17:47:02.506Z,99032.50
2022-10-17T17:49:06.991Z,99033.88
2022-10-17T17:51:11.779Z,99036.09
2022-10-17T17:53:16.366Z,99031.22
2022-10-17T17:55:19.433Z,99020.06
2022-10-17T17:57:22.993Z,99022.13
2022-10-17T17:59:26.239Z,99031.34
2022-10-17T18:01:30.948Z,99028.38
2022-10-17T18:03:33.976Z,99030.16
2022-10-17T18:05:41.210Z,99031.81
2022-10-17T18:07:44.315Z,99033.19
2022-10-17T18:09:48.068Z,99043.19
2022-10-17T18:11:51.181Z,99037.31
2022-10-17T18:13:55.629Z,99047.06
2022-10-17T18:16:00.384Z,99047.31
2022-10-17T18:18:03.651Z,99053.69
2022-10-17T18:20:08.139Z,99055.66
2022-10-17T18:22:12.616Z,99057.69
2022-10-17T18:24:15.697Z,99051.97
2022-10-17T18:26:18.878Z,99052.94
2022-10-17T18:28:22.075Z,99061.00
2022-10-17T18:30:27.207Z,99056.97
2022-10-17T18:32:32.941Z,99056.22
2022-10-17T18:34:36.116Z,99062.63
2022-10-17T18:36:39.218Z,99060.13
2022-10-17T18:38:44.198Z,99058.56
2022-10-17T18:40:50.017Z,99066.91
2022-10-17T18:42:54.057Z,99070.66
2022-10-17T18:44:57.115Z,99064.91
2022-10-17T18:47:03.832Z,99074.78
2022-10-17T18:49:07.778Z,99061.13
2022-10-17T18:51:11.556Z,99078.19
2022-10-17T18:53:14.930Z,99065.38
2022-10-17T18:55:20.531Z,99069.09
2022-10-17T18:57:26.136Z,99070.06
2022-10-17T18:59:29.695Z,99067.81
2022-10-17T19:01:32.996Z,99067.94
2022-10-17T19:03:36.344Z,99069.75
2022-10-17T19:05:39.832Z,99068.06
2022-10-17T19:07:42.865Z,99072.78
2022-10-17T19:09:45.963Z,99067.63
2022-10-17T19:11:50.540Z,99076.50
2022-10-17T19:13:54.224Z,99077.59
2022-10-17T19:15:57.394Z,99074.38
2022-10-17T19:18:00.455Z,99081.47
2022-10-17T19:20:03.707Z,99087.09
2022-10-17T19:22:06.872Z,99087.84
2022-10-17T19:24:13.829Z,99088.34
2022-10-17T19:26:17.025Z,99101.69
2022-10-17T19:28:21.503Z,99092.91
2022-10-17T19:30:24.998Z,99095.81
2022-10-17T19:32:28.229Z,99085.66
2022-10-17T19:34:31.634Z,99088.53
2022-10-17T19:36:36.171Z,99082.63
2022-10-17T19:38:39.353Z,99084.56
2022-10-17T19:40:42.677Z,99083.88
2022-10-17T19:42:46.015Z,99088.41
2022-10-17T19:44:50.428Z,99080.88
2022-10-17T19:46:53.703Z,99088.66
2022-10-17T19:48:57.444Z,99091.56
2022-10-17T19:51:00.530Z,99091.81
2022-10-17T19:53:03.665Z,99090.16
2022-10-17T19:55:09.095Z,99081.75
2022-10-17T19:57:12.323Z,99088.00
2022-10-17T19:59:16.817Z,99088.50
2022-10-17T20:01:23.956Z,99087.66
2022-10-17T20:03:29.016Z,99081.91
2022-10-17T20:05:32.146Z,99079.13
2022-10-17T20:07:35.210Z,99074.84
2022-10-17T20:09:38.711Z,99082.25
2022-10-17T20:11:42.002Z,99077.84
2022-10-17T20:13:45.862Z,99078.91
2022-10-17T20:15:57.776Z,99073.75
2022-10-17T20:18:02.245Z,99074.84
2022-10-17T20:20:08.696Z,99075.81
2022-10-17T20:22:12.193Z,99075.06
2022-10-17T20:24:17.580Z,99071.03
2022-10-17T20:26:37.650Z,99077.13
2022-10-17T20:28:41.918Z,99073.78
2022-10-17T20:30:46.422Z,99068.63
2022-10-17T20:32:55.042Z,99075.09
2022-10-17T20:34:59.862Z,99075.94
2022-10-17T20:37:02.970Z,99082.31
2022-10-17T20:39:07.216Z,99076.38
2022-10-17T20:41:11.345Z,99072.44
2022-10-17T20:43:14.852Z,99081.31
2022-10-17T20:45:18.110Z,99086.81
2022-10-17T20:47:40.012Z,99085.41
2022-10-17T20:49:44.769Z,99089.22
2022-10-17T20:51:49.413Z,99079.75
2022-10-17T20:53:52.654Z,99094.97
2022-10-17T20:56:02.949Z,99091.88
2022-10-17T20:58:06.238Z,99085.97
2022-10-17T21:00:10.541Z,99088.72
2022-10-17T21:02:14.484Z,99088.84
2022-10-17T21:06:40.612Z,99097.09
2022-10-17T21:08:45.476Z,99091.34
2022-10-17T21:10:48.671Z,99099.50
2022-10-17T21:12:54.329Z,99092.69
2022-10-17T21:14:57.780Z,99090.19
2022-10-17T21:17:04.751Z,99092.19
2022-10-17T21:19:08.471Z,99087.88
2022-10-17T21:21:13.613Z,99094.22
2022-10-17T21:23:16.611Z,99095.28
2022-10-17T21:25:21.180Z,99099.72
2022-10-17T21:27:24.312Z,99106.91
2022-10-17T21:29:27.667Z,99101.66
2022-10-17T21:31:31.142Z,99098.25
2022-10-17T21:33:34.266Z,99103.75
2022-10-17T21:35:37.341Z,99103.88
2022-10-17T21:37:40.411Z,99099.59
2022-10-17T21:39:43.490Z,99102.34
2022-10-17T21:41:47.848Z,99104.22
2022-10-17T21:43:54.201Z,99102.56
2022-10-17T21:45:57.171Z,99104.22
2022-10-17T21:48:12.475Z,99105.31
2022-10-17T21:50:16.295Z,99107.09
2022-10-17T21:52:19.414Z,99106.38
2022-10-17T21:54:23.938Z,99099.53
2022-10-17T21:56:30.593Z,99099.81
2022-10-17T21:58:35.218Z,99096.44
2022-10-17T22:00:38.294Z,99105.41
2022-10-17T22:02:41.329Z,99095.81
2022-10-17T22:04:45.414Z,99100.38
2022-10-17T22:06:51.440Z,99100.50
2022-10-17T22:08:55.048Z,99100.59
2022-10-17T22:10:58.728Z,99104.19
2022-10-17T22:13:01.739Z,99099.09
2022-10-17T22:15:07.388Z,99099.09
2022-10-17T22:17:10.427Z,99095.75
2022-10-17T22:19:14.858Z,99090.72
2022-10-17T22:21:19.401Z,99087.13
2022-10-17T22:23:22.423Z,99086.28
2022-10-17T22:25:25.649Z,99080.44
2022-10-17T22:27:28.952Z,99085.69
2022-10-17T22:29:32.320Z,99077.91
2022-10-17T22:31:37.900Z,99078.84
2022-10-17T22:33:41.690Z,99078.97
2022-10-17T22:35:44.875Z,99074.63
2022-10-17T22:37:47.923Z,99072.97
2022-10-17T22:39:50.951Z,99077.38
2022-10-17T22:41:53.995Z,99075.84
2022-10-17T22:43:57.184Z,99067.94
2022-10-17T22:46:01.788Z,99075.84
2022-10-17T22:48:07.018Z,99076.91
2022-10-17T22:50:10.591Z,99075.22
2022-10-17T22:52:13.670Z,99072.69
2022-10-17T22:54:17.072Z,99068.75
2022-10-17T22:56:21.945Z,99073.19
2022-10-17T22:58:25.860Z,99071.50
2022-10-17T23:02:32.607Z,99065.63
2022-10-17T23:04:37.239Z,99057.09
2022-10-17T23:06:40.236Z,99056.38
2022-10-17T23:08:44.325Z,99066.19
2022-10-17T23:10:48.050Z,99067.13
2022-10-17T23:12:51.307Z,99064.59
2022-10-17T23:14:54.315Z,99058.53
2022-10-17T23:16:57.426Z,99049.16
2022-10-17T23:19:00.744Z,99057.88
2022-10-17T23:21:05.424Z,99056.22
2022-10-17T23:23:08.580Z,99053.72
2022-10-17T23:25:11.596Z,99051.19
2022-10-17T23:27:14.711Z,99051.31
2022-10-17T23:29:17.753Z,99049.50
2022-10-17T23:31:22.060Z,99047.91
2022-10-17T23:33:25.179Z,99040.91
2022-10-17T23:35:28.741Z,99048.03
2022-10-17T23:37:33.367Z,99050.78
2022-10-17T23:39:36.514Z,99043.84
2022-10-17T23:41:39.940Z,99044.09
2022-10-17T23:43:43.651Z,99043.22
2022-10-17T23:45:46.662Z,99041.56
2022-10-17T23:47:49.681Z,99035.47
2022-10-17T23:49:52.670Z,99039.03
2022-10-17T23:51:55.646Z,99033.78
2022-10-17T23:53:59.975Z,99035.69
2022-10-17T23:56:03.027Z,99037.56
2022-10-17T23:58:06.058Z,99033.28
